Airfield :
LOGIN :

Register | Disclaimer

   EN    FR    IT 

 










Legend :    VFR   Marginal VFR   IFR   Intensive IFR   Very Intensive IFR
Visi :
Ceiling :
>= 8 km
>= 3000ft
5 to 8 km
1000 to 3000 ft
1500m to 5 km
500 to 1000 ft
800 to 1500m
200 to 500 ft
< 800m
< 200 ft
Symbols :   Thunderstorms  Fog  Heavy snow  Heavy precipitations  Wind > 20 kt
SIGMETs :     Misc.  Thunderstorms  Icing  Turbulence  Mountain Waves  Volcanic Ashes






- Airport Elevation : 1487 ft
- IATA code : MUC


EDDM - München Franz Josef Strauss

CURRENT METAR :
  • 280020Z AUTO 27007KT 9999 SCT025 BKN038 BKN044 13/11 Q1020 NOSIG

EXPIRED METARs :
  • 272350Z AUTO 24008KT 9999 FEW044 12/11 Q1020 NOSIG
  • 272320Z AUTO 25008KT CAVOK 12/11 Q1020 NOSIG
  • 272250Z AUTO 23008KT CAVOK 13/12 Q1020 NOSIG
  • 272220Z AUTO 26006KT CAVOK 13/12 Q1021 NOSIG
  • 272150Z AUTO 25007KT 9999 FEW034 13/12 Q1020 NOSIG

TAF TAF EDDM
Valid from the 28 at 00:00 until the 29 at 06:00 UTC


272300Z 2800/2906 26005KT 9999 BKN040
BECMG 2807/2809 30010KT
PROB30
TEMPO 2816/2818 SHRA BKN050TCU
BECMG 2816/2818 32005KT
BECMG 2818/2820 VRB03KT



MET'MAP, your aeronautical weather chart ! - Copyright ORBIFLY December 2007 - Disclaimer

ORBIFLY MET'MAP TEAM :

Programming & Development : Alexandra Zaïnal
Original concept : Baudouin d'Aumeries
Technical & hardware support : Manuel Goepfert
Assistance : Marc-Olivier Méhu

Contact : metmap@orbifly.com




SOURCES & CREDITS :

   NOAA